createdAt,value
2022-08-07T00:00:22.967Z,4.50
2022-08-07T00:02:36.495Z,3.60
2022-08-07T00:04:45.377Z,4.07
2022-08-07T00:06:51.945Z,3.88
2022-08-07T00:08:56.031Z,3.47
2022-08-07T00:10:59.089Z,3.75
2022-08-07T00:13:17.494Z,4.00
2022-08-07T00:15:36.095Z,3.33
2022-08-07T00:17:42.243Z,3.45
2022-08-07T00:20:00.902Z,3.42
2022-08-07T00:22:06.782Z,3.70
2022-08-07T00:24:10.348Z,3.47
2022-08-07T00:26:31.214Z,3.47
2022-08-07T00:28:41.812Z,4.00
2022-08-07T00:30:50.464Z,3.25
2022-08-07T00:32:53.485Z,3.40
2022-08-07T00:34:56.676Z,3.40
2022-08-07T00:36:59.761Z,3.45
2022-08-07T00:39:02.778Z,3.38
2022-08-07T00:41:14.692Z,3.28
2022-08-07T00:43:59.538Z,3.17
2022-08-07T00:45:42.352Z,3.50
2022-08-07T00:48:08.693Z,3.80
2022-08-07T00:50:20.316Z,3.57
2022-08-07T00:52:36.608Z,3.35
2022-08-07T00:54:40.653Z,3.87
2022-08-07T00:56:44.682Z,3.20
2022-08-07T00:58:52.679Z,3.70
2022-08-07T01:00:55.632Z,3.17
2022-08-07T01:03:00.473Z,3.20
2022-08-07T01:05:19.064Z,3.03
2022-08-07T01:07:23.750Z,3.53
2022-08-07T01:10:04.969Z,3.10
2022-08-07T01:12:23.798Z,3.07
2022-08-07T01:14:17.892Z,3.00
2022-08-07T01:16:30.360Z,2.97
2022-08-07T01:18:35.631Z,3.00
2022-08-07T01:20:43.579Z,3.10
2022-08-07T01:23:12.339Z,2.50
2022-08-07T01:25:39.974Z,2.97
2022-08-07T01:27:41.143Z,2.80
2022-08-07T01:29:55.435Z,2.73
2022-08-07T01:31:59.492Z,2.87
2022-08-07T01:34:04.085Z,2.63
2022-08-07T01:36:16.800Z,2.40
2022-08-07T01:38:24.812Z,3.10
2022-08-07T01:40:34.162Z,3.33
2022-08-07T01:42:57.374Z,2.67
2022-08-07T01:45:01.087Z,2.83
2022-08-07T01:48:16.990Z,2.50
2022-08-07T01:49:28.542Z,2.27
2022-08-07T01:52:02.656Z,2.60
2022-08-07T01:54:11.679Z,2.83
2022-08-07T01:56:28.905Z,2.30
2022-08-07T01:58:37.462Z,2.47
2022-08-07T02:00:49.271Z,2.50
2022-08-07T02:03:18.580Z,2.70
2022-08-07T02:05:43.029Z,2.37
2022-08-07T02:07:51.613Z,2.73
2022-08-07T02:10:14.314Z,2.60
2022-08-07T02:12:18.634Z,2.30
2022-08-07T02:14:36.599Z,2.60
2022-08-07T02:16:50.154Z,2.63
2022-08-07T02:18:57.439Z,2.83
2022-08-07T02:21:06.399Z,2.50
2022-08-07T02:23:13.880Z,2.77
2022-08-07T02:26:10.388Z,2.50
2022-08-07T02:27:54.482Z,3.20
2022-08-07T02:29:59.538Z,2.30
2022-08-07T02:32:10.923Z,2.20
2022-08-07T02:34:17.961Z,2.53
2022-08-07T02:36:32.584Z,2.60
2022-08-07T02:38:51.003Z,1.87
2022-08-07T02:41:04.279Z,2.23
2022-08-07T02:43:16.780Z,2.30
2022-08-07T02:45:58.102Z,2.07
2022-08-07T02:47:49.181Z,2.40
2022-08-07T02:49:58.543Z,1.90
2022-08-07T02:52:12.900Z,2.30
2022-08-07T02:54:19.221Z,2.43
2022-08-07T02:56:24.357Z,1.63
2022-08-07T02:58:33.250Z,1.87
2022-08-07T03:00:39.911Z,1.80
2022-08-07T03:02:54.319Z,1.57
2022-08-07T03:04:59.224Z,1.97
2022-08-07T03:07:05.258Z,1.87
2022-08-07T03:09:43.870Z,2.17
2022-08-07T03:11:51.889Z,1.80
2022-08-07T03:14:04.310Z,1.87
2022-08-07T03:16:14.988Z,1.90
2022-08-07T03:18:20.214Z,2.30
2022-08-07T03:20:27.607Z,1.70
2022-08-07T03:22:31.721Z,1.70
2022-08-07T03:24:36.723Z,2.30
2022-08-07T03:26:58.349Z,2.40
2022-08-07T03:29:10.399Z,2.80
2022-08-07T03:31:24.878Z,1.93
2022-08-07T03:33:44.818Z,2.80
2022-08-07T03:35:52.907Z,2.37
2022-08-07T03:38:01.913Z,2.40
2022-08-07T03:40:15.753Z,2.70
2022-08-07T03:42:21.957Z,2.53
2022-08-07T03:44:34.331Z,3.10
2022-08-07T03:47:13.064Z,2.70
2022-08-07T03:49:04.512Z,2.57
2022-08-07T03:51:14.570Z,3.30
2022-08-07T03:53:18.025Z,3.07
2022-08-07T03:55:23.109Z,2.30
2022-08-07T03:58:34.295Z,3.03
2022-08-07T04:00:02.984Z,2.97
2022-08-07T04:02:18.752Z,2.60
2022-08-07T04:04:22.739Z,2.67
2022-08-07T04:06:37.238Z,2.80
2022-08-07T04:08:42.534Z,2.37
2022-08-07T04:10:54.320Z,2.73
2022-08-07T04:13:15.728Z,2.13
2022-08-07T04:15:23.951Z,2.20
2022-08-07T04:18:11.304Z,2.50
2022-08-07T04:19:54.266Z,2.60
2022-08-07T04:22:07.843Z,2.73
2022-08-07T04:24:30.592Z,2.40
2022-08-07T04:26:43.625Z,2.33
2022-08-07T04:28:48.385Z,2.03
2022-08-07T04:30:57.032Z,2.03
2022-08-07T04:33:07.974Z,2.30
2022-08-07T04:35:14.326Z,2.33
2022-08-07T04:37:20.431Z,2.30
2022-08-07T04:39:26.204Z,2.30
2022-08-07T04:41:30.634Z,2.50
2022-08-07T04:44:09.791Z,1.40
2022-08-07T04:46:29.641Z,1.63
2022-08-07T04:48:46.365Z,1.60
2022-08-07T04:51:00.231Z,2.23
2022-08-07T04:53:09.169Z,1.73
2022-08-07T04:58:13.808Z,2.23
2022-08-07T04:58:14.419Z,2.10
2022-08-07T05:00:30.321Z,2.07
2022-08-07T05:02:45.818Z,2.00
2022-08-07T05:04:57.255Z,1.83
2022-08-07T05:07:19.796Z,2.30
2022-08-07T05:09:45.923Z,2.23
2022-08-07T05:11:56.964Z,1.63
2022-08-07T05:14:52.439Z,1.50
2022-08-07T05:16:33.317Z,2.07
2022-08-07T05:18:42.185Z,1.73
2022-08-07T05:20:50.261Z,1.90
2022-08-07T05:22:56.194Z,2.00
2022-08-07T05:25:00.730Z,2.03
2022-08-07T05:27:06.952Z,2.20
2022-08-07T05:29:22.701Z,1.42
2022-08-07T05:31:35.213Z,1.70
2022-08-07T05:34:01.202Z,1.95
2022-08-07T05:36:22.325Z,1.60
2022-08-07T05:39:01.236Z,2.00
2022-08-07T05:40:51.860Z,1.67
2022-08-07T05:42:57.447Z,1.90
2022-08-07T05:45:14.062Z,1.60
2022-08-07T05:47:20.840Z,1.83
2022-08-07T05:49:43.176Z,1.60
2022-08-07T05:51:47.702Z,1.77
2022-08-07T05:54:12.272Z,1.50
2022-08-07T05:56:20.609Z,1.58
2022-08-07T05:58:37.084Z,1.73
2022-08-07T06:00:46.243Z,1.77
2022-08-07T06:02:55.005Z,1.30
2022-08-07T06:05:03.919Z,1.40
2022-08-07T06:07:08.291Z,1.50
2022-08-07T06:09:16.262Z,1.30
2022-08-07T06:11:22.298Z,1.80
2022-08-07T06:14:10.653Z,1.15
2022-08-07T06:15:50.708Z,1.17
2022-08-07T06:18:01.042Z,1.73
2022-08-07T06:20:12.633Z,1.65
2022-08-07T06:22:32.457Z,1.60
2022-08-07T06:24:58.466Z,1.35
2022-08-07T06:27:05.691Z,1.40
2022-08-07T06:29:10.531Z,1.50
2022-08-07T06:31:14.601Z,1.67
2022-08-07T06:33:19.062Z,1.90
2022-08-07T06:35:39.109Z,1.50
2022-08-07T06:37:49.743Z,1.48
2022-08-07T06:40:16.130Z,1.38
2022-08-07T06:42:32.811Z,1.08
2022-08-07T06:44:58.982Z,1.20
2022-08-07T06:47:10.242Z,1.27
2022-08-07T06:49:16.174Z,1.23
2022-08-07T06:51:24.534Z,1.35
2022-08-07T06:55:28.999Z,1.65
2022-08-07T06:56:02.050Z,1.40
2022-08-07T06:58:13.793Z,1.40
2022-08-07T07:00:32.643Z,1.30
2022-08-07T07:02:48.992Z,1.40
2022-08-07T07:04:58.072Z,1.40
2022-08-07T07:07:18.771Z,1.30
2022-08-07T07:09:30.862Z,1.48
2022-08-07T07:12:08.781Z,1.42
2022-08-07T07:14:01.398Z,1.25
2022-08-07T07:16:14.801Z,1.17
2022-08-07T07:18:46.838Z,0.70
2022-08-07T07:20:54.501Z,0.82
2022-08-07T07:24:10.987Z,1.52
2022-08-07T07:26:32.841Z,1.00
2022-08-07T07:27:55.707Z,0.82
2022-08-07T07:30:09.611Z,1.10
2022-08-07T07:32:15.530Z,1.40
2022-08-07T07:34:22.300Z,0.95
2022-08-07T07:36:34.885Z,1.08
2022-08-07T07:38:46.162Z,1.15
2022-08-07T07:40:51.002Z,1.08
2022-08-07T07:42:55.842Z,1.23
2022-08-07T07:45:01.345Z,1.10
2022-08-07T07:47:15.930Z,1.10
2022-08-07T07:50:33.336Z,0.90
2022-08-07T07:51:58.165Z,0.77
2022-08-07T07:54:04.394Z,0.80
2022-08-07T07:56:16.717Z,0.70
2022-08-07T07:58:40.238Z,1.00
2022-08-07T08:00:45.762Z,0.90
2022-08-07T08:03:01.194Z,0.82
2022-08-07T08:05:11.387Z,0.90
2022-08-07T08:07:30.024Z,0.70
2022-08-07T08:09:52.094Z,0.90
2022-08-07T08:12:05.173Z,0.70
2022-08-07T08:14:09.382Z,1.00
2022-08-07T08:16:20.333Z,0.93
2022-08-07T08:18:29.254Z,0.60
2022-08-07T08:20:34.503Z,0.60
2022-08-07T08:23:00.428Z,0.90
2022-08-07T08:25:41.956Z,0.70
2022-08-07T08:27:56.806Z,0.65
2022-08-07T08:30:05.474Z,0.85
2022-08-07T08:32:18.868Z,0.70
2022-08-07T08:34:29.484Z,0.88
2022-08-07T08:36:34.625Z,0.60
2022-08-07T08:38:41.168Z,0.80
2022-08-07T08:40:51.218Z,0.60
2022-08-07T08:42:58.589Z,1.10
2022-08-07T08:45:13.089Z,1.10
2022-08-07T08:47:25.213Z,0.80
2022-08-07T08:49:46.295Z,0.77
2022-08-07T08:52:14.009Z,1.05
2022-08-07T08:54:26.584Z,1.00
2022-08-07T08:56:35.010Z,1.00
2022-08-07T08:58:50.620Z,0.90
2022-08-07T09:01:01.864Z,1.15
2022-08-07T09:03:47.975Z,0.70
2022-08-07T09:05:55.135Z,0.90
2022-08-07T09:08:17.892Z,0.80
2022-08-07T09:10:32.685Z,0.90
2022-08-07T09:12:53.117Z,1.10
2022-08-07T09:16:22.439Z,0.80
2022-08-07T09:17:59.473Z,7.40
2022-08-07T09:20:03.222Z,0.80
2022-08-07T09:24:31.903Z,0.88
2022-08-07T09:25:17.301Z,0.80
2022-08-07T09:27:28.786Z,0.85
2022-08-07T09:30:03.991Z,0.77
2022-08-07T09:32:20.909Z,0.60
2022-08-07T09:34:27.612Z,0.93
2022-08-07T09:36:37.199Z,0.90
2022-08-07T09:38:50.256Z,0.65
2022-08-07T09:44:05.693Z,0.73
2022-08-07T09:47:23.713Z,0.70
2022-08-07T09:50:00.760Z,0.70
2022-08-07T09:52:10.856Z,0.70
2022-08-07T09:54:08.226Z,0.73
2022-08-07T09:56:37.319Z,0.77
2022-08-07T09:59:00.718Z,0.63
2022-08-07T10:01:53.799Z,0.80
2022-08-07T10:04:14.421Z,0.98
2022-08-07T10:06:30.506Z,0.63
2022-08-07T10:09:08.617Z,0.80
2022-08-07T10:12:02.433Z,1.17
2022-08-07T10:13:58.350Z,0.65
2022-08-07T10:16:23.493Z,1.08
2022-08-07T10:18:40.759Z,0.88
2022-08-07T10:20:59.124Z,0.90
2022-08-07T10:24:06.409Z,1.02
2022-08-07T10:26:05.013Z,0.90
2022-08-07T10:28:17.802Z,0.70
2022-08-07T10:30:24.943Z,0.75
2022-08-07T10:32:53.337Z,0.70
2022-08-07T10:35:09.112Z,0.90
2022-08-07T10:38:00.263Z,0.90
2022-08-07T10:40:05.792Z,1.00
2022-08-07T10:42:31.308Z,0.63
2022-08-07T10:44:47.132Z,0.60
2022-08-07T10:46:55.891Z,0.80
2022-08-07T10:49:03.837Z,0.70
2022-08-07T10:51:39.727Z,0.70
2022-08-07T10:53:48.648Z,0.80
2022-08-07T10:56:02.231Z,0.70
2022-08-07T10:58:14.525Z,0.82
2022-08-07T11:00:39.114Z,0.70
2022-08-07T11:02:49.007Z,0.80
2022-08-07T11:05:10.172Z,0.80
2022-08-07T11:07:56.582Z,0.80
2022-08-07T11:10:09.537Z,0.93
2022-08-07T11:12:19.043Z,0.90
2022-08-07T11:14:45.906Z,0.88
2022-08-07T11:17:07.201Z,0.75
2022-08-07T11:19:21.692Z,0.70
2022-08-07T11:21:42.966Z,0.60
2022-08-07T11:23:50.035Z,0.60
2022-08-07T11:26:05.994Z,1.00
2022-08-07T11:28:15.551Z,0.80
2022-08-07T11:30:29.094Z,0.68
2022-08-07T11:32:47.949Z,0.80
2022-08-07T11:34:58.460Z,0.70
2022-08-07T11:37:03.911Z,0.75
2022-08-07T11:39:19.551Z,0.80
2022-08-07T11:42:02.092Z,0.60
2022-08-07T11:44:12.457Z,0.55
2022-08-07T11:46:30.442Z,0.80
2022-08-07T11:49:27.617Z,0.70
2022-08-07T11:51:41.955Z,0.50
2022-08-07T11:54:01.639Z,0.70
2022-08-07T11:56:28.112Z,0.80
2022-08-07T11:58:42.868Z,0.80
2022-08-07T12:01:07.391Z,0.68
2022-08-07T12:03:47.051Z,0.60
2022-08-07T12:06:37.801Z,0.80
2022-08-07T12:08:35.055Z,0.88
2022-08-07T12:10:41.631Z,0.60
2022-08-07T12:12:56.524Z,0.73
2022-08-07T12:15:05.257Z,1.27
2022-08-07T12:17:19.721Z,0.50
2022-08-07T12:19:35.967Z,0.60
2022-08-07T12:22:37.179Z,0.70
2022-08-07T12:24:38.080Z,0.60
2022-08-07T12:26:49.300Z,0.65
2022-08-07T12:28:58.531Z,0.60
2022-08-07T12:33:31.064Z,0.60
2022-08-07T12:35:58.117Z,0.73
2022-08-07T12:38:11.558Z,0.77
2022-08-07T12:40:46.300Z,0.68
2022-08-07T12:42:54.931Z,0.77
2022-08-07T12:45:05.716Z,0.60
2022-08-07T12:47:21.353Z,0.63
2022-08-07T12:49:44.802Z,0.80
2022-08-07T12:52:13.995Z,0.93
2022-08-07T12:54:38.436Z,0.98
2022-08-07T12:56:50.903Z,0.85
2022-08-07T12:58:57.238Z,0.90
2022-08-07T13:01:07.854Z,0.60
2022-08-07T13:04:02.105Z,0.65
2022-08-07T13:06:31.251Z,0.63
2022-08-07T13:08:52.525Z,0.60
2022-08-07T13:11:20.899Z,0.70
2022-08-07T13:13:47.994Z,0.70
2022-08-07T13:16:00.550Z,0.63
2022-08-07T13:18:26.235Z,0.70
2022-08-07T13:20:36.879Z,0.60
2022-08-07T13:22:52.533Z,0.50
2022-08-07T13:25:00.537Z,0.88
2022-08-07T13:27:12.942Z,0.70
2022-08-07T13:29:20.471Z,0.60
2022-08-07T13:31:32.043Z,0.60
2022-08-07T13:34:32.621Z,0.80
2022-08-07T13:36:26.776Z,0.73
2022-08-07T13:38:36.676Z,0.77
2022-08-07T13:41:04.353Z,0.70
2022-08-07T13:43:12.339Z,0.60
2022-08-07T13:46:11.756Z,0.68
2022-08-07T13:48:08.566Z,0.73
2022-08-07T13:50:35.133Z,0.60
2022-08-07T13:52:40.770Z,0.60
2022-08-07T13:54:49.113Z,0.60
2022-08-07T13:57:01.772Z,0.82
2022-08-07T13:59:20.383Z,0.70
2022-08-07T14:01:26.366Z,0.60
2022-08-07T14:04:06.946Z,0.65
2022-08-07T14:06:02.069Z,0.80
2022-08-07T14:08:08.951Z,0.70
2022-08-07T14:10:23.117Z,0.60
2022-08-07T14:12:36.221Z,0.70
2022-08-07T14:14:48.142Z,0.60
2022-08-07T14:16:54.529Z,0.82
2022-08-07T14:18:58.614Z,0.60
2022-08-07T14:21:07.986Z,0.75
2022-08-07T14:23:59.232Z,0.70
2022-08-07T14:26:00.930Z,0.63
2022-08-07T14:28:10.716Z,0.88
2022-08-07T14:30:27.700Z,0.95
2022-08-07T14:32:42.926Z,0.65
2022-08-07T14:34:47.068Z,0.73
2022-08-07T14:36:55.845Z,0.63
2022-08-07T14:39:03.304Z,1.05
2022-08-07T14:41:15.279Z,0.60
2022-08-07T14:43:57.320Z,0.80
2022-08-07T14:45:49.463Z,0.90
2022-08-07T14:47:58.855Z,0.80
2022-08-07T14:50:06.602Z,0.90
2022-08-07T14:52:16.896Z,0.80
2022-08-07T14:56:44.904Z,0.90
2022-08-07T14:58:55.027Z,0.70
2022-08-07T15:00:59.662Z,0.80
2022-08-07T15:03:25.052Z,0.70
2022-08-07T15:05:54.885Z,0.93
2022-08-07T15:08:12.563Z,0.70
2022-08-07T15:10:25.012Z,0.80
2022-08-07T15:12:34.574Z,0.75
2022-08-07T15:17:20.563Z,0.60
2022-08-07T15:20:31.082Z,0.70
2022-08-07T15:22:04.126Z,0.80
2022-08-07T15:26:41.016Z,0.60
2022-08-07T15:31:58.028Z,0.88
2022-08-07T15:33:43.101Z,0.70
2022-08-07T15:36:01.928Z,0.70
2022-08-07T15:40:34.874Z,0.65
2022-08-07T15:42:51.748Z,0.70
2022-08-07T15:44:55.245Z,0.70
2022-08-07T15:54:01.868Z,0.60
2022-08-07T15:56:17.450Z,0.90
2022-08-07T15:58:24.853Z,1.00
2022-08-07T16:00:39.701Z,0.90
2022-08-07T16:02:46.799Z,0.80
2022-08-07T16:04:50.776Z,1.17
2022-08-07T16:06:55.604Z,0.90
2022-08-07T16:09:04.041Z,0.80
2022-08-07T16:11:40.195Z,0.95
2022-08-07T16:14:03.228Z,0.77
2022-08-07T16:16:48.875Z,0.80
2022-08-07T16:18:51.586Z,0.88
2022-08-07T16:22:03.226Z,0.63
2022-08-07T16:23:54.787Z,1.00
2022-08-07T16:26:03.210Z,0.90
2022-08-07T16:30:05.973Z,0.70
2022-08-07T16:30:57.832Z,0.90
2022-08-07T16:34:02.643Z,0.80
2022-08-07T16:35:56.506Z,0.85
2022-08-07T16:38:09.694Z,0.80
2022-08-07T16:40:56.842Z,0.70
2022-08-07T16:43:12.445Z,0.80
2022-08-07T16:46:34.586Z,0.80
2022-08-07T16:50:27.507Z,0.88
2022-08-07T16:52:50.555Z,0.80
2022-08-07T16:54:34.705Z,0.88
2022-08-07T16:56:53.557Z,0.98
2022-08-07T16:59:14.782Z,0.80
2022-08-07T17:01:35.037Z,0.70
2022-08-07T17:03:59.744Z,0.70
2022-08-07T17:06:41.118Z,0.90
2022-08-07T17:09:10.552Z,0.60
2022-08-07T17:11:28.219Z,0.82
2022-08-07T17:14:18.554Z,0.90
2022-08-07T17:16:28.515Z,0.95
2022-08-07T17:18:37.829Z,0.73
2022-08-07T17:20:42.381Z,1.00
2022-08-07T17:23:01.392Z,0.95
2022-08-07T17:25:16.145Z,0.82
2022-08-07T17:27:32.656Z,0.90
2022-08-07T17:30:15.475Z,1.50
2022-08-07T17:32:30.002Z,5.47
2022-08-07T17:34:38.804Z,4.63
2022-08-07T17:37:09.648Z,1.65
2022-08-07T17:39:57.639Z,1.50
2022-08-07T17:42:06.540Z,3.65
2022-08-07T17:44:33.230Z,1.17
2022-08-07T17:46:41.696Z,1.30
2022-08-07T17:48:52.800Z,1.13
2022-08-07T17:51:01.761Z,1.10
2022-08-07T17:53:59.682Z,1.20
2022-08-07T17:55:55.046Z,0.98
2022-08-07T17:58:05.224Z,1.00
2022-08-07T18:00:11.859Z,0.85
2022-08-07T18:02:16.446Z,1.10
2022-08-07T18:04:30.825Z,0.70
2022-08-07T18:06:43.241Z,0.82
2022-08-07T18:09:02.030Z,0.80
2022-08-07T18:12:08.054Z,0.90
2022-08-07T18:13:48.407Z,0.93
2022-08-07T18:16:04.702Z,0.80
2022-08-07T18:18:46.012Z,0.77
2022-08-07T18:21:02.845Z,1.00
2022-08-07T18:23:05.951Z,0.77
2022-08-07T18:25:40.822Z,1.05
2022-08-07T18:28:00.668Z,1.33
2022-08-07T18:30:31.238Z,0.88
2022-08-07T18:33:12.125Z,0.90
2022-08-07T18:35:22.976Z,0.80
2022-08-07T18:38:56.529Z,0.93
2022-08-07T18:40:17.947Z,0.60
2022-08-07T18:42:37.322Z,1.00
2022-08-07T18:47:21.006Z,1.00
2022-08-07T18:50:32.822Z,0.80
2022-08-07T18:52:37.519Z,1.17
2022-08-07T18:54:34.852Z,1.17
2022-08-07T18:57:23.406Z,1.00
2022-08-07T18:59:47.276Z,1.40
2022-08-07T19:02:19.029Z,1.17
2022-08-07T19:04:37.202Z,1.17
2022-08-07T19:06:51.396Z,0.95
2022-08-07T19:09:09.035Z,1.20
2022-08-07T19:11:36.711Z,1.55
2022-08-07T19:14:02.429Z,1.40
2022-08-07T19:19:57.920Z,1.30
2022-08-07T19:22:05.503Z,1.45
2022-08-07T19:24:30.462Z,1.30
2022-08-07T19:27:08.959Z,1.27
2022-08-07T19:30:57.665Z,1.17
2022-08-07T19:32:10.955Z,2.55
2022-08-07T19:34:05.518Z,1.38
2022-08-07T19:36:15.714Z,1.65
2022-08-07T19:38:33.787Z,1.80
2022-08-07T19:40:50.450Z,2.30
2022-08-07T19:42:55.790Z,1.75
2022-08-07T19:45:09.321Z,1.45
2022-08-07T19:47:16.182Z,1.25
2022-08-07T19:49:57.620Z,1.60
2022-08-07T19:51:52.498Z,1.20
2022-08-07T19:54:34.268Z,1.30
2022-08-07T19:57:52.241Z,1.55
2022-08-07T19:58:53.212Z,1.48
2022-08-07T20:00:58.657Z,1.48
2022-08-07T20:03:34.751Z,1.75
2022-08-07T20:05:59.536Z,1.50
2022-08-07T20:07:59.847Z,1.90
2022-08-07T20:10:36.938Z,1.83
2022-08-07T20:12:35.037Z,1.88
2022-08-07T20:14:53.518Z,2.00
2022-08-07T20:16:58.431Z,2.10
2022-08-07T20:19:02.417Z,2.13
2022-08-07T20:21:14.354Z,2.22
2022-08-07T20:23:41.042Z,2.42
2022-08-07T20:25:51.112Z,2.13
2022-08-07T20:27:58.690Z,2.10
2022-08-07T20:30:10.952Z,3.03
2022-08-07T20:32:25.243Z,2.70
2022-08-07T20:34:49.416Z,2.40
2022-08-07T20:36:53.621Z,2.50
2022-08-07T20:39:30.371Z,2.00
2022-08-07T20:41:34.041Z,2.00
2022-08-07T20:43:47.926Z,2.53
2022-08-07T20:46:27.149Z,1.83
2022-08-07T20:48:29.061Z,2.22
2022-08-07T20:50:34.672Z,2.40
2022-08-07T20:52:51.196Z,2.03
2022-08-07T20:54:57.692Z,1.88
2022-08-07T20:57:08.238Z,2.63
2022-08-07T21:00:04.839Z,2.13
2022-08-07T21:01:55.456Z,2.08
2022-08-07T21:04:22.960Z,1.60
2022-08-07T21:06:28.457Z,1.70
2022-08-07T21:08:39.267Z,1.88
2022-08-07T21:10:46.242Z,1.58
2022-08-07T21:12:49.811Z,1.83
2022-08-07T21:14:53.926Z,1.60
2022-08-07T21:18:00.741Z,1.58
2022-08-07T21:19:32.386Z,1.55
2022-08-07T21:21:57.578Z,2.10
2022-08-07T21:24:04.549Z,1.60
2022-08-07T21:26:20.543Z,1.60
2022-08-07T21:28:48.705Z,1.42
2022-08-07T21:31:01.002Z,1.83
2022-08-07T21:33:11.577Z,1.88
2022-08-07T21:35:34.915Z,1.83
2022-08-07T21:37:58.383Z,2.00
2022-08-07T21:40:07.797Z,1.67
2022-08-07T21:42:41.789Z,1.90
2022-08-07T21:44:51.018Z,1.95
2022-08-07T21:46:59.479Z,1.42
2022-08-07T21:49:14.669Z,1.77
2022-08-07T21:51:32.391Z,1.50
2022-08-07T21:53:46.583Z,2.08
2022-08-07T21:56:01.721Z,2.40
2022-08-07T21:58:29.946Z,2.67
2022-08-07T22:00:41.042Z,1.73
2022-08-07T22:02:46.337Z,2.05
2022-08-07T22:04:54.039Z,2.17
2022-08-07T22:07:02.487Z,2.00
2022-08-07T22:09:07.466Z,1.85
2022-08-07T22:11:17.579Z,2.50
2022-08-07T22:13:52.326Z,2.17
2022-08-07T22:16:39.029Z,2.15
2022-08-07T22:18:24.929Z,2.58
2022-08-07T22:20:37.848Z,2.35
2022-08-07T22:22:46.424Z,1.85
2022-08-07T22:25:03.642Z,2.22
2022-08-07T22:27:17.238Z,2.08
2022-08-07T22:29:38.107Z,1.88
2022-08-07T22:32:03.395Z,1.80
2022-08-07T22:34:14.724Z,2.00
2022-08-07T22:36:29.583Z,1.80
2022-08-07T22:38:38.822Z,2.08
2022-08-07T22:40:49.596Z,1.20
2022-08-07T22:42:56.978Z,1.92
2022-08-07T22:45:10.971Z,1.95
2022-08-07T22:47:56.313Z,1.60
2022-08-07T22:50:20.786Z,1.90
2022-08-07T22:52:48.177Z,2.00
2022-08-07T22:55:17.135Z,1.95
2022-08-07T22:57:46.616Z,1.83
2022-08-07T22:59:58.547Z,1.67
2022-08-07T23:02:27.902Z,1.75
2022-08-07T23:06:06.920Z,1.50
2022-08-07T23:07:41.967Z,1.80
2022-08-07T23:10:38.374Z,2.03
2022-08-07T23:12:43.523Z,1.65
2022-08-07T23:15:21.871Z,1.90
2022-08-07T23:17:54.594Z,2.10
2022-08-07T23:20:40.577Z,2.08
2022-08-07T23:22:56.173Z,1.75
2022-08-07T23:25:10.249Z,2.33
2022-08-07T23:28:22.594Z,1.58
2022-08-07T23:30:39.682Z,1.67
2022-08-07T23:34:36.006Z,1.63
2022-08-07T23:35:40.408Z,2.03
2022-08-07T23:38:00.866Z,1.70
2022-08-07T23:40:14.199Z,2.40
2022-08-07T23:42:41.418Z,2.22
2022-08-07T23:45:15.436Z,1.90
2022-08-07T23:53:00.972Z,2.20
2022-08-07T23:53:55.356Z,2.20
2022-08-07T23:56:41.651Z,2.63
